sensor_id;sensor_type;location;lat;lon;timestamp;temperature;humidity
292;DHT22;23311;48.776;9.162;2022-10-23T00:01:15;12.30;95.50
292;DHT22;23311;48.776;9.162;2022-10-23T00:03:46;12.10;95.50
292;DHT22;23311;48.776;9.162;2022-10-23T00:06:14;12.00;95.50
292;DHT22;23311;48.776;9.162;2022-10-23T00:08:42;12.00;95.50
292;DHT22;23311;48.776;9.162;2022-10-23T00:11:15;12.00;95.50
292;DHT22;23311;48.776;9.162;2022-10-23T00:13:44;12.10;95.50
292;DHT22;23311;48.776;9.162;2022-10-23T00:16:12;11.90;95.50
292;DHT22;23311;48.776;9.162;2022-10-23T00:18:41;11.70;95.50
292;DHT22;23311;48.776;9.162;2022-10-23T00:21:12;11.60;95.50
292;DHT22;23311;48.776;9.162;2022-10-23T00:23:40;11.60;95.50
292;DHT22;23311;48.776;9.162;2022-10-23T00:26:09;11.60;95.50
292;DHT22;23311;48.776;9.162;2022-10-23T00:28:41;11.50;95.50
292;DHT22;23311;48.776;9.162;2022-10-23T00:31:10;11.40;95.50
292;DHT22;23311;48.776;9.162;2022-10-23T00:33:38;11.40;95.50
292;DHT22;23311;48.776;9.162;2022-10-23T00:36:08;11.30;95.50
292;DHT22;23311;48.776;9.162;2022-10-23T00:38:38;11.20;95.50
292;DHT22;23311;48.776;9.162;2022-10-23T00:41:07;11.20;95.50
292;DHT22;23311;48.776;9.162;2022-10-23T00:44:00;11.20;95.50
292;DHT22;23311;48.776;9.162;2022-10-23T00:46:28;11.20;95.50
292;DHT22;23311;48.776;9.162;2022-10-23T00:48:57;11.10;95.50
292;DHT22;23311;48.776;9.162;2022-10-23T00:51:28;11.10;95.50
292;DHT22;23311;48.776;9.162;2022-10-23T00:53:59;11.10;95.50
292;DHT22;23311;48.776;9.162;2022-10-23T00:56:48;11.10;95.50
292;DHT22;23311;48.776;9.162;2022-10-23T00:59:17;11.20;95.50
292;DHT22;23311;48.776;9.162;2022-10-23T01:01:45;11.10;95.50
292;DHT22;23311;48.776;9.162;2022-10-23T01:04:14;11.00;95.50
292;DHT22;23311;48.776;9.162;2022-10-23T01:06:46;11.00;95.50
292;DHT22;23311;48.776;9.162;2022-10-23T01:09:23;11.00;95.50
292;DHT22;23311;48.776;9.162;2022-10-23T01:11:57;11.10;95.50
292;DHT22;23311;48.776;9.162;2022-10-23T01:14:31;11.20;95.50
292;DHT22;23311;48.776;9.162;2022-10-23T01:17:08;11.40;95.50
292;DHT22;23311;48.776;9.162;2022-10-23T01:19:50;11.60;95.50
292;DHT22;23311;48.776;9.162;2022-10-23T01:22:32;11.80;95.50
292;DHT22;23311;48.776;9.162;2022-10-23T01:25:15;12.10;95.50
292;DHT22;23311;48.776;9.162;2022-10-23T01:27:51;12.10;95.50
292;DHT22;23311;48.776;9.162;2022-10-23T01:30:20;11.90;95.50
292;DHT22;23311;48.776;9.162;2022-10-23T01:32:51;11.70;95.50
292;DHT22;23311;48.776;9.162;2022-10-23T01:35:23;11.60;95.50
292;DHT22;23311;48.776;9.162;2022-10-23T01:37:57;11.60;95.50
292;DHT22;23311;48.776;9.162;2022-10-23T01:40:31;11.70;95.50
292;DHT22;23311;48.776;9.162;2022-10-23T01:43:05;11.90;95.50
292;DHT22;23311;48.776;9.162;2022-10-23T01:45:39;11.90;95.50
292;DHT22;23311;48.776;9.162;2022-10-23T01:48:11;11.80;95.50
292;DHT22;23311;48.776;9.162;2022-10-23T01:50:41;11.80;95.50
292;DHT22;23311;48.776;9.162;2022-10-23T01:53:10;11.60;95.50
292;DHT22;23311;48.776;9.162;2022-10-23T01:55:40;11.60;95.50
292;DHT22;23311;48.776;9.162;2022-10-23T01:58:15;11.40;95.50
292;DHT22;23311;48.776;9.162;2022-10-23T02:00:47;11.30;95.50
292;DHT22;23311;48.776;9.162;2022-10-23T02:03:17;11.20;95.50
292;DHT22;23311;48.776;9.162;2022-10-23T02:05:46;11.20;95.50
292;DHT22;23311;48.776;9.162;2022-10-23T02:08:14;11.20;95.50
292;DHT22;23311;48.776;9.162;2022-10-23T02:10:48;11.20;95.50
292;DHT22;23311;48.776;9.162;2022-10-23T02:13:24;11.10;95.50
292;DHT22;23311;48.776;9.162;2022-10-23T02:16:01;11.00;95.50
292;DHT22;23311;48.776;9.162;2022-10-23T02:18:35;10.90;95.50
292;DHT22;23311;48.776;9.162;2022-10-23T02:21:08;11.00;95.50
292;DHT22;23311;48.776;9.162;2022-10-23T02:23:39;11.10;95.50
292;DHT22;23311;48.776;9.162;2022-10-23T02:26:15;11.00;95.50
292;DHT22;23311;48.776;9.162;2022-10-23T02:28:48;11.00;95.50
292;DHT22;23311;48.776;9.162;2022-10-23T02:31:20;10.90;95.50
292;DHT22;23311;48.776;9.162;2022-10-23T02:33:49;10.90;95.50
292;DHT22;23311;48.776;9.162;2022-10-23T02:36:17;10.90;95.50
292;DHT22;23311;48.776;9.162;2022-10-23T02:38:46;11.00;95.50
292;DHT22;23311;48.776;9.162;2022-10-23T02:41:29;11.00;95.50
292;DHT22;23311;48.776;9.162;2022-10-23T02:44:20;11.10;95.50
292;DHT22;23311;48.776;9.162;2022-10-23T02:46:56;11.10;95.50
292;DHT22;23311;48.776;9.162;2022-10-23T02:49:30;11.10;95.50
292;DHT22;23311;48.776;9.162;2022-10-23T02:52:08;11.00;95.50
292;DHT22;23311;48.776;9.162;2022-10-23T02:54:51;11.10;95.50
292;DHT22;23311;48.776;9.162;2022-10-23T02:57:26;11.00;95.50
292;DHT22;23311;48.776;9.162;2022-10-23T03:00:03;11.00;95.50
292;DHT22;23311;48.776;9.162;2022-10-23T03:02:36;11.10;95.50
292;DHT22;23311;48.776;9.162;2022-10-23T03:05:09;11.00;95.50
292;DHT22;23311;48.776;9.162;2022-10-23T03:07:39;11.00;95.50
292;DHT22;23311;48.776;9.162;2022-10-23T03:10:09;10.90;95.50
292;DHT22;23311;48.776;9.162;2022-10-23T03:12:37;11.00;95.50
292;DHT22;23311;48.776;9.162;2022-10-23T03:15:10;11.00;95.50
292;DHT22;23311;48.776;9.162;2022-10-23T03:17:38;10.90;95.50
292;DHT22;23311;48.776;9.162;2022-10-23T03:20:08;10.90;95.50
292;DHT22;23311;48.776;9.162;2022-10-23T03:22:36;10.80;95.50
292;DHT22;23311;48.776;9.162;2022-10-23T03:25:05;10.70;95.50
292;DHT22;23311;48.776;9.162;2022-10-23T03:27:34;10.70;95.50
292;DHT22;23311;48.776;9.162;2022-10-23T03:30:03;10.70;95.50
292;DHT22;23311;48.776;9.162;2022-10-23T03:32:33;10.70;95.50
292;DHT22;23311;48.776;9.162;2022-10-23T03:35:01;10.70;95.50
292;DHT22;23311;48.776;9.162;2022-10-23T03:37:29;10.70;95.50
292;DHT22;23311;48.776;9.162;2022-10-23T03:39:57;10.70;95.50
292;DHT22;23311;48.776;9.162;2022-10-23T03:42:25;10.60;95.50
292;DHT22;23311;48.776;9.162;2022-10-23T03:44:53;10.60;95.50
292;DHT22;23311;48.776;9.162;2022-10-23T03:47:21;10.70;95.50
292;DHT22;23311;48.776;9.162;2022-10-23T03:49:51;10.70;95.50
292;DHT22;23311;48.776;9.162;2022-10-23T03:52:19;10.70;95.50
292;DHT22;23311;48.776;9.162;2022-10-23T03:54:47;10.80;95.50
292;DHT22;23311;48.776;9.162;2022-10-23T03:57:15;10.80;95.50
292;DHT22;23311;48.776;9.162;2022-10-23T03:59:43;10.80;95.50
292;DHT22;23311;48.776;9.162;2022-10-23T04:02:11;10.80;95.50
292;DHT22;23311;48.776;9.162;2022-10-23T04:04:39;10.80;95.50
292;DHT22;23311;48.776;9.162;2022-10-23T04:07:08;10.80;95.50
292;DHT22;23311;48.776;9.162;2022-10-23T04:09:37;10.80;95.50
292;DHT22;23311;48.776;9.162;2022-10-23T04:12:05;10.80;95.50
292;DHT22;23311;48.776;9.162;2022-10-23T04:14:35;10.80;95.50
292;DHT22;23311;48.776;9.162;2022-10-23T04:17:03;10.70;95.50
292;DHT22;23311;48.776;9.162;2022-10-23T04:19:31;10.70;95.50
292;DHT22;23311;48.776;9.162;2022-10-23T04:21:59;10.70;95.50
292;DHT22;23311;48.776;9.162;2022-10-23T04:24:28;10.70;95.50
292;DHT22;23311;48.776;9.162;2022-10-23T04:26:56;10.70;95.50
292;DHT22;23311;48.776;9.162;2022-10-23T04:29:24;10.70;95.50
292;DHT22;23311;48.776;9.162;2022-10-23T04:31:54;10.70;95.50
292;DHT22;23311;48.776;9.162;2022-10-23T04:34:22;10.70;95.50
292;DHT22;23311;48.776;9.162;2022-10-23T04:36:50;10.90;95.50
292;DHT22;23311;48.776;9.162;2022-10-23T04:39:18;10.90;95.50
292;DHT22;23311;48.776;9.162;2022-10-23T04:41:48;11.10;95.50
292;DHT22;23311;48.776;9.162;2022-10-23T04:44:16;11.20;95.50
292;DHT22;23311;48.776;9.162;2022-10-23T04:46:44;11.20;95.50
292;DHT22;23311;48.776;9.162;2022-10-23T04:49:12;11.20;95.50
292;DHT22;23311;48.776;9.162;2022-10-23T04:51:40;11.20;95.50
292;DHT22;23311;48.776;9.162;2022-10-23T04:54:08;11.20;95.50
292;DHT22;23311;48.776;9.162;2022-10-23T04:56:36;11.20;95.50
292;DHT22;23311;48.776;9.162;2022-10-23T04:59:06;11.30;95.50
292;DHT22;23311;48.776;9.162;2022-10-23T05:01:34;11.30;95.50
292;DHT22;23311;48.776;9.162;2022-10-23T05:04:02;11.30;95.50
292;DHT22;23311;48.776;9.162;2022-10-23T05:06:31;11.40;95.50
292;DHT22;23311;48.776;9.162;2022-10-23T05:08:59;11.50;95.50
292;DHT22;23311;48.776;9.162;2022-10-23T05:11:27;11.50;95.50
292;DHT22;23311;48.776;9.162;2022-10-23T05:13:55;11.50;95.50
292;DHT22;23311;48.776;9.162;2022-10-23T05:16:33;11.50;95.50
292;DHT22;23311;48.776;9.162;2022-10-23T05:19:05;11.50;95.50
292;DHT22;23311;48.776;9.162;2022-10-23T05:21:35;11.40;95.50
292;DHT22;23311;48.776;9.162;2022-10-23T05:24:04;11.40;95.50
292;DHT22;23311;48.776;9.162;2022-10-23T05:26:32;11.50;95.50
292;DHT22;23311;48.776;9.162;2022-10-23T05:29:00;11.40;95.50
292;DHT22;23311;48.776;9.162;2022-10-23T05:31:32;11.30;95.50
292;DHT22;23311;48.776;9.162;2022-10-23T05:34:01;11.20;95.50
292;DHT22;23311;48.776;9.162;2022-10-23T05:36:29;11.20;95.50
292;DHT22;23311;48.776;9.162;2022-10-23T05:38:58;11.30;95.50
292;DHT22;23311;48.776;9.162;2022-10-23T05:41:26;11.30;95.50
292;DHT22;23311;48.776;9.162;2022-10-23T05:43:54;11.30;95.50
292;DHT22;23311;48.776;9.162;2022-10-23T05:46:22;11.20;95.50
292;DHT22;23311;48.776;9.162;2022-10-23T05:48:51;11.20;95.50
292;DHT22;23311;48.776;9.162;2022-10-23T05:51:21;11.10;95.50
292;DHT22;23311;48.776;9.162;2022-10-23T05:53:49;11.00;95.50
292;DHT22;23311;48.776;9.162;2022-10-23T05:56:18;11.10;95.50
292;DHT22;23311;48.776;9.162;2022-10-23T05:58:46;11.10;95.50
292;DHT22;23311;48.776;9.162;2022-10-23T06:01:14;11.10;95.50
292;DHT22;23311;48.776;9.162;2022-10-23T06:03:44;11.10;95.50
292;DHT22;23311;48.776;9.162;2022-10-23T06:06:13;11.10;95.50
292;DHT22;23311;48.776;9.162;2022-10-23T06:08:41;11.10;95.50
292;DHT22;23311;48.776;9.162;2022-10-23T06:11:12;11.00;95.50
292;DHT22;23311;48.776;9.162;2022-10-23T06:13:42;11.10;95.50
292;DHT22;23311;48.776;9.162;2022-10-23T06:16:12;11.20;95.50
292;DHT22;23311;48.776;9.162;2022-10-23T06:18:41;11.30;95.50
292;DHT22;23311;48.776;9.162;2022-10-23T06:21:09;11.30;95.50
292;DHT22;23311;48.776;9.162;2022-10-23T06:23:39;11.30;95.50
292;DHT22;23311;48.776;9.162;2022-10-23T06:26:09;11.30;95.50
292;DHT22;23311;48.776;9.162;2022-10-23T06:28:38;11.40;95.50
292;DHT22;23311;48.776;9.162;2022-10-23T06:31:07;11.40;95.50
292;DHT22;23311;48.776;9.162;2022-10-23T06:33:35;11.40;95.50
292;DHT22;23311;48.776;9.162;2022-10-23T06:36:04;11.50;95.50
292;DHT22;23311;48.776;9.162;2022-10-23T06:38:37;11.60;95.50
292;DHT22;23311;48.776;9.162;2022-10-23T06:41:10;11.70;95.50
292;DHT22;23311;48.776;9.162;2022-10-23T06:43:38;11.70;95.50
292;DHT22;23311;48.776;9.162;2022-10-23T06:46:06;11.70;95.50
292;DHT22;23311;48.776;9.162;2022-10-23T06:48:35;11.80;95.50
292;DHT22;23311;48.776;9.162;2022-10-23T06:51:06;11.90;95.50
292;DHT22;23311;48.776;9.162;2022-10-23T06:53:34;11.90;95.50
292;DHT22;23311;48.776;9.162;2022-10-23T06:56:06;12.10;95.50
292;DHT22;23311;48.776;9.162;2022-10-23T06:58:36;12.10;95.50
292;DHT22;23311;48.776;9.162;2022-10-23T07:01:07;12.10;95.50
292;DHT22;23311;48.776;9.162;2022-10-23T07:03:35;12.20;95.50
292;DHT22;23311;48.776;9.162;2022-10-23T07:06:05;12.30;95.50
292;DHT22;23311;48.776;9.162;2022-10-23T07:08:34;12.40;95.50
292;DHT22;23311;48.776;9.162;2022-10-23T07:11:04;12.50;95.50
292;DHT22;23311;48.776;9.162;2022-10-23T07:13:34;12.60;95.50
292;DHT22;23311;48.776;9.162;2022-10-23T07:16:09;12.70;95.50
292;DHT22;23311;48.776;9.162;2022-10-23T07:18:37;12.80;95.50
292;DHT22;23311;48.776;9.162;2022-10-23T07:21:05;13.00;95.50
292;DHT22;23311;48.776;9.162;2022-10-23T07:23:33;13.00;95.50
292;DHT22;23311;48.776;9.162;2022-10-23T07:26:05;13.10;95.50
292;DHT22;23311;48.776;9.162;2022-10-23T07:28:33;13.20;95.50
292;DHT22;23311;48.776;9.162;2022-10-23T07:31:02;13.30;95.50
292;DHT22;23311;48.776;9.162;2022-10-23T07:33:30;13.40;95.50
292;DHT22;23311;48.776;9.162;2022-10-23T07:35:58;13.40;95.50
292;DHT22;23311;48.776;9.162;2022-10-23T07:38:27;13.60;95.50
292;DHT22;23311;48.776;9.162;2022-10-23T07:40:56;13.60;95.50
292;DHT22;23311;48.776;9.162;2022-10-23T07:43:26;13.80;95.50
292;DHT22;23311;48.776;9.162;2022-10-23T07:45:54;13.80;95.50
292;DHT22;23311;48.776;9.162;2022-10-23T07:48:22;14.00;95.50
292;DHT22;23311;48.776;9.162;2022-10-23T07:50:53;14.20;95.50
292;DHT22;23311;48.776;9.162;2022-10-23T07:53:24;14.40;95.50
292;DHT22;23311;48.776;9.162;2022-10-23T07:55:53;14.60;95.50
292;DHT22;23311;48.776;9.162;2022-10-23T07:58:21;14.80;95.50
292;DHT22;23311;48.776;9.162;2022-10-23T08:00:54;15.00;95.50
292;DHT22;23311;48.776;9.162;2022-10-23T08:03:24;15.20;95.50
292;DHT22;23311;48.776;9.162;2022-10-23T08:05:53;15.30;95.50
292;DHT22;23311;48.776;9.162;2022-10-23T08:08:21;15.50;95.50
292;DHT22;23311;48.776;9.162;2022-10-23T08:10:51;15.60;95.50
292;DHT22;23311;48.776;9.162;2022-10-23T08:13:20;15.70;95.50
292;DHT22;23311;48.776;9.162;2022-10-23T08:15:50;15.80;95.50
292;DHT22;23311;48.776;9.162;2022-10-23T08:18:19;15.90;95.50
292;DHT22;23311;48.776;9.162;2022-10-23T08:20:47;16.00;95.50
292;DHT22;23311;48.776;9.162;2022-10-23T08:23:18;16.00;95.50
292;DHT22;23311;48.776;9.162;2022-10-23T08:25:47;16.20;95.50
292;DHT22;23311;48.776;9.162;2022-10-23T08:28:15;16.30;95.50
292;DHT22;23311;48.776;9.162;2022-10-23T08:30:43;16.50;95.50
292;DHT22;23311;48.776;9.162;2022-10-23T08:33:12;16.60;95.50
292;DHT22;23311;48.776;9.162;2022-10-23T08:35:40;16.70;95.50
292;DHT22;23311;48.776;9.162;2022-10-23T08:38:09;16.60;95.50
292;DHT22;23311;48.776;9.162;2022-10-23T08:40:37;16.40;95.50
292;DHT22;23311;48.776;9.162;2022-10-23T08:43:14;16.30;95.50
292;DHT22;23311;48.776;9.162;2022-10-23T08:45:47;16.30;95.50
292;DHT22;23311;48.776;9.162;2022-10-23T08:48:21;16.20;95.50
292;DHT22;23311;48.776;9.162;2022-10-23T08:50:55;16.20;95.50
292;DHT22;23311;48.776;9.162;2022-10-23T08:53:28;16.10;95.50
292;DHT22;23311;48.776;9.162;2022-10-23T08:56:01;16.10;95.50
292;DHT22;23311;48.776;9.162;2022-10-23T08:58:35;16.10;95.50
292;DHT22;23311;48.776;9.162;2022-10-23T09:01:33;16.00;95.50
292;DHT22;23311;48.776;9.162;2022-10-23T09:04:04;16.00;95.50
292;DHT22;23311;48.776;9.162;2022-10-23T09:06:37;16.20;95.50
292;DHT22;23311;48.776;9.162;2022-10-23T09:09:38;16.30;95.50
292;DHT22;23311;48.776;9.162;2022-10-23T09:12:11;16.50;95.50
292;DHT22;23311;48.776;9.162;2022-10-23T09:14:54;16.80;95.50
292;DHT22;23311;48.776;9.162;2022-10-23T09:17:24;17.10;95.50
292;DHT22;23311;48.776;9.162;2022-10-23T09:19:59;17.40;95.50
292;DHT22;23311;48.776;9.162;2022-10-23T09:22:28;17.60;95.50
292;DHT22;23311;48.776;9.162;2022-10-23T09:24:56;17.90;95.50
292;DHT22;23311;48.776;9.162;2022-10-23T09:27:24;18.10;95.40
292;DHT22;23311;48.776;9.162;2022-10-23T09:29:54;18.20;94.80
292;DHT22;23311;48.776;9.162;2022-10-23T09:32:32;18.40;94.70
292;DHT22;23311;48.776;9.162;2022-10-23T09:35:03;18.40;94.50
292;DHT22;23311;48.776;9.162;2022-10-23T09:37:32;18.50;94.40
292;DHT22;23311;48.776;9.162;2022-10-23T09:40:16;18.70;93.80
292;DHT22;23311;48.776;9.162;2022-10-23T09:42:53;18.80;93.70
292;DHT22;23311;48.776;9.162;2022-10-23T09:45:28;19.00;93.90
292;DHT22;23311;48.776;9.162;2022-10-23T09:48:05;19.20;93.30
292;DHT22;23311;48.776;9.162;2022-10-23T09:50:34;19.30;93.00
292;DHT22;23311;48.776;9.162;2022-10-23T09:53:02;19.30;93.00
292;DHT22;23311;48.776;9.162;2022-10-23T09:55:31;19.20;93.30
292;DHT22;23311;48.776;9.162;2022-10-23T09:57:59;19.00;93.80
292;DHT22;23311;48.776;9.162;2022-10-23T10:00:27;18.90;94.30
292;DHT22;23311;48.776;9.162;2022-10-23T10:02:57;19.00;94.20
292;DHT22;23311;48.776;9.162;2022-10-23T10:05:28;19.00;94.30
292;DHT22;23311;48.776;9.162;2022-10-23T10:08:02;19.20;94.00
292;DHT22;23311;48.776;9.162;2022-10-23T10:10:36;19.30;93.20
292;DHT22;23311;48.776;9.162;2022-10-23T10:13:13;19.50;92.60
292;DHT22;23311;48.776;9.162;2022-10-23T10:15:53;19.50;92.70
292;DHT22;23311;48.776;9.162;2022-10-23T10:18:27;19.60;92.40
292;DHT22;23311;48.776;9.162;2022-10-23T10:21:06;19.60;92.60
292;DHT22;23311;48.776;9.162;2022-10-23T10:23:44;19.90;92.30
292;DHT22;23311;48.776;9.162;2022-10-23T10:26:22;20.10;91.60
292;DHT22;23311;48.776;9.162;2022-10-23T10:29:09;20.30;91.10
292;DHT22;23311;48.776;9.162;2022-10-23T10:31:49;20.50;90.50
292;DHT22;23311;48.776;9.162;2022-10-23T10:34:23;20.70;90.20
292;DHT22;23311;48.776;9.162;2022-10-23T10:36:56;21.00;89.70
292;DHT22;23311;48.776;9.162;2022-10-23T10:39:39;21.30;88.60
292;DHT22;23311;48.776;9.162;2022-10-23T10:42:27;21.50;86.90
292;DHT22;23311;48.776;9.162;2022-10-23T10:50:52;21.80;84.60
292;DHT22;23311;48.776;9.162;2022-10-23T10:53:33;21.90;86.30
292;DHT22;23311;48.776;9.162;2022-10-23T10:56:09;21.90;86.30
292;DHT22;23311;48.776;9.162;2022-10-23T10:58:41;21.90;85.30
292;DHT22;23311;48.776;9.162;2022-10-23T11:01:18;21.90;84.90
292;DHT22;23311;48.776;9.162;2022-10-23T11:03:56;22.00;84.10
292;DHT22;23311;48.776;9.162;2022-10-23T11:06:29;22.20;84.00
292;DHT22;23311;48.776;9.162;2022-10-23T11:09:09;22.40;83.80
292;DHT22;23311;48.776;9.162;2022-10-23T11:11:48;22.60;83.40
292;DHT22;23311;48.776;9.162;2022-10-23T11:14:17;22.90;81.90
292;DHT22;23311;48.776;9.162;2022-10-23T11:16:49;23.10;81.20
292;DHT22;23311;48.776;9.162;2022-10-23T11:19:22;23.10;81.30
292;DHT22;23311;48.776;9.162;2022-10-23T11:21:56;23.20;81.20
292;DHT22;23311;48.776;9.162;2022-10-23T11:24:59;23.20;81.60
292;DHT22;23311;48.776;9.162;2022-10-23T11:27:47;23.10;81.40
292;DHT22;23311;48.776;9.162;2022-10-23T11:30:21;23.00;81.90
292;DHT22;23311;48.776;9.162;2022-10-23T11:33:07;23.00;81.70
292;DHT22;23311;48.776;9.162;2022-10-23T11:35:52;23.00;82.00
292;DHT22;23311;48.776;9.162;2022-10-23T11:40:59;22.90;82.40
292;DHT22;23311;48.776;9.162;2022-10-23T11:43:31;23.10;83.00
292;DHT22;23311;48.776;9.162;2022-10-23T11:46:11;23.00;83.90
292;DHT22;23311;48.776;9.162;2022-10-23T11:48:41;22.90;84.40
292;DHT22;23311;48.776;9.162;2022-10-23T11:51:26;22.70;84.60
292;DHT22;23311;48.776;9.162;2022-10-23T11:54:05;22.70;84.90
292;DHT22;23311;48.776;9.162;2022-10-23T11:56:34;22.80;85.10
292;DHT22;23311;48.776;9.162;2022-10-23T11:59:20;22.80;85.30
292;DHT22;23311;48.776;9.162;2022-10-23T12:01:51;23.00;84.70
292;DHT22;23311;48.776;9.162;2022-10-23T12:04:23;23.10;84.40
292;DHT22;23311;48.776;9.162;2022-10-23T12:06:54;23.20;84.10
292;DHT22;23311;48.776;9.162;2022-10-23T12:09:28;23.30;83.80
292;DHT22;23311;48.776;9.162;2022-10-23T12:12:14;23.10;84.20
292;DHT22;23311;48.776;9.162;2022-10-23T12:14:45;23.20;84.40
292;DHT22;23311;48.776;9.162;2022-10-23T12:17:28;23.40;84.30
292;DHT22;23311;48.776;9.162;2022-10-23T12:20:07;23.20;84.70
292;DHT22;23311;48.776;9.162;2022-10-23T12:22:44;23.10;85.00
292;DHT22;23311;48.776;9.162;2022-10-23T12:25:16;23.10;85.00
292;DHT22;23311;48.776;9.162;2022-10-23T12:27:50;23.50;84.20
292;DHT22;23311;48.776;9.162;2022-10-23T12:30:23;23.90;83.20
292;DHT22;23311;48.776;9.162;2022-10-23T12:36:03;24.10;82.70
292;DHT22;23311;48.776;9.162;2022-10-23T12:38:42;24.20;81.90
292;DHT22;23311;48.776;9.162;2022-10-23T12:41:13;24.40;81.50
292;DHT22;23311;48.776;9.162;2022-10-23T12:43:43;24.40;81.30
292;DHT22;23311;48.776;9.162;2022-10-23T12:46:30;24.50;81.50
292;DHT22;23311;48.776;9.162;2022-10-23T12:49:00;24.50;81.00
292;DHT22;23311;48.776;9.162;2022-10-23T12:51:31;24.60;80.80
292;DHT22;23311;48.776;9.162;2022-10-23T12:54:00;24.90;80.00
292;DHT22;23311;48.776;9.162;2022-10-23T12:56:34;25.00;80.20
292;DHT22;23311;48.776;9.162;2022-10-23T12:59:03;25.60;78.50
292;DHT22;23311;48.776;9.162;2022-10-23T13:01:33;25.90;77.60
292;DHT22;23311;48.776;9.162;2022-10-23T13:04:12;26.20;77.20
292;DHT22;23311;48.776;9.162;2022-10-23T13:06:41;26.00;77.70
292;DHT22;23311;48.776;9.162;2022-10-23T13:09:19;25.70;77.90
292;DHT22;23311;48.776;9.162;2022-10-23T13:11:50;25.30;79.20
292;DHT22;23311;48.776;9.162;2022-10-23T13:14:30;24.80;80.50
292;DHT22;23311;48.776;9.162;2022-10-23T13:17:01;24.20;82.00
292;DHT22;23311;48.776;9.162;2022-10-23T13:19:30;23.80;83.60
292;DHT22;23311;48.776;9.162;2022-10-23T13:21:58;23.50;84.30
292;DHT22;23311;48.776;9.162;2022-10-23T13:24:28;23.50;84.60
292;DHT22;23311;48.776;9.162;2022-10-23T13:26:57;23.40;84.70
292;DHT22;23311;48.776;9.162;2022-10-23T13:29:27;23.20;85.10
292;DHT22;23311;48.776;9.162;2022-10-23T13:31:56;22.90;86.10
292;DHT22;23311;48.776;9.162;2022-10-23T13:34:27;22.70;86.60
292;DHT22;23311;48.776;9.162;2022-10-23T13:37:01;22.50;87.20
292;DHT22;23311;48.776;9.162;2022-10-23T13:39:32;22.20;87.70
292;DHT22;23311;48.776;9.162;2022-10-23T13:42:10;22.00;88.30
292;DHT22;23311;48.776;9.162;2022-10-23T13:44:39;22.00;88.40
292;DHT22;23311;48.776;9.162;2022-10-23T13:47:10;22.00;88.30
292;DHT22;23311;48.776;9.162;2022-10-23T13:49:40;22.10;88.10
292;DHT22;23311;48.776;9.162;2022-10-23T13:52:11;22.10;88.20
292;DHT22;23311;48.776;9.162;2022-10-23T13:54:40;22.10;88.60
292;DHT22;23311;48.776;9.162;2022-10-23T13:57:12;22.00;88.90
292;DHT22;23311;48.776;9.162;2022-10-23T13:59:40;22.00;89.10
292;DHT22;23311;48.776;9.162;2022-10-23T14:02:17;22.00;88.90
292;DHT22;23311;48.776;9.162;2022-10-23T14:04:47;21.90;89.10
292;DHT22;23311;48.776;9.162;2022-10-23T14:07:15;21.90;89.30
292;DHT22;23311;48.776;9.162;2022-10-23T14:09:44;21.80;89.50
292;DHT22;23311;48.776;9.162;2022-10-23T14:12:12;21.80;89.80
292;DHT22;23311;48.776;9.162;2022-10-23T14:14:40;21.80;89.60
292;DHT22;23311;48.776;9.162;2022-10-23T14:17:08;21.70;90.00
292;DHT22;23311;48.776;9.162;2022-10-23T14:19:36;21.60;90.10
292;DHT22;23311;48.776;9.162;2022-10-23T14:22:06;21.40;90.60
292;DHT22;23311;48.776;9.162;2022-10-23T14:24:34;21.40;90.80
292;DHT22;23311;48.776;9.162;2022-10-23T14:27:03;21.30;91.30
292;DHT22;23311;48.776;9.162;2022-10-23T14:29:31;21.40;91.10
292;DHT22;23311;48.776;9.162;2022-10-23T14:31:59;21.30;91.60
292;DHT22;23311;48.776;9.162;2022-10-23T14:34:27;21.30;91.40
292;DHT22;23311;48.776;9.162;2022-10-23T14:36:55;21.20;91.90
292;DHT22;23311;48.776;9.162;2022-10-23T14:39:36;21.20;91.70
292;DHT22;23311;48.776;9.162;2022-10-23T14:42:04;21.30;91.40
292;DHT22;23311;48.776;9.162;2022-10-23T14:44:32;21.30;91.60
292;DHT22;23311;48.776;9.162;2022-10-23T14:47:00;21.20;91.80
292;DHT22;23311;48.776;9.162;2022-10-23T14:49:29;21.20;91.90
292;DHT22;23311;48.776;9.162;2022-10-23T14:51:57;21.20;92.30
292;DHT22;23311;48.776;9.162;2022-10-23T14:54:25;21.20;92.30
292;DHT22;23311;48.776;9.162;2022-10-23T14:56:56;21.00;93.00
292;DHT22;23311;48.776;9.162;2022-10-23T14:59:24;20.90;93.50
292;DHT22;23311;48.776;9.162;2022-10-23T15:01:52;20.90;92.90
292;DHT22;23311;48.776;9.162;2022-10-23T15:04:21;20.90;93.10
292;DHT22;23311;48.776;9.162;2022-10-23T15:06:49;20.80;93.60
292;DHT22;23311;48.776;9.162;2022-10-23T15:09:17;20.80;93.40
292;DHT22;23311;48.776;9.162;2022-10-23T15:11:46;20.70;95.00
292;DHT22;23311;48.776;9.162;2022-10-23T15:14:16;20.60;95.10
292;DHT22;23311;48.776;9.162;2022-10-23T15:16:44;20.50;95.00
292;DHT22;23311;48.776;9.162;2022-10-23T15:19:14;20.50;95.20
292;DHT22;23311;48.776;9.162;2022-10-23T15:21:45;20.40;95.50
292;DHT22;23311;48.776;9.162;2022-10-23T15:24:13;20.40;95.50
292;DHT22;23311;48.776;9.162;2022-10-23T15:26:42;20.70;95.20
292;DHT22;23311;48.776;9.162;2022-10-23T15:29:11;20.70;95.40
292;DHT22;23311;48.776;9.162;2022-10-23T15:31:52;20.60;95.50
292;DHT22;23311;48.776;9.162;2022-10-23T15:34:22;20.50;95.50
292;DHT22;23311;48.776;9.162;2022-10-23T15:36:52;20.30;95.50
292;DHT22;23311;48.776;9.162;2022-10-23T15:39:22;20.30;95.50
292;DHT22;23311;48.776;9.162;2022-10-23T15:41:52;20.40;95.50
292;DHT22;23311;48.776;9.162;2022-10-23T15:44:22;20.40;95.50
292;DHT22;23311;48.776;9.162;2022-10-23T15:46:52;20.30;95.50
292;DHT22;23311;48.776;9.162;2022-10-23T15:49:23;20.30;95.50
292;DHT22;23311;48.776;9.162;2022-10-23T15:51:52;20.30;95.50
292;DHT22;23311;48.776;9.162;2022-10-23T15:54:21;20.20;95.50
292;DHT22;23311;48.776;9.162;2022-10-23T15:56:50;20.10;95.50
292;DHT22;23311;48.776;9.162;2022-10-23T15:59:20;19.90;95.50
292;DHT22;23311;48.776;9.162;2022-10-23T16:01:48;19.90;95.50
292;DHT22;23311;48.776;9.162;2022-10-23T16:04:18;20.10;95.50
292;DHT22;23311;48.776;9.162;2022-10-23T16:06:47;20.10;95.50
292;DHT22;23311;48.776;9.162;2022-10-23T16:09:15;20.00;95.50
292;DHT22;23311;48.776;9.162;2022-10-23T16:11:44;20.00;95.50
292;DHT22;23311;48.776;9.162;2022-10-23T16:14:13;20.00;95.50
292;DHT22;23311;48.776;9.162;2022-10-23T16:16:42;19.90;95.50
292;DHT22;23311;48.776;9.162;2022-10-23T16:19:11;19.80;95.50
292;DHT22;23311;48.776;9.162;2022-10-23T16:21:41;19.60;95.50
292;DHT22;23311;48.776;9.162;2022-10-23T16:24:09;19.50;95.50
292;DHT22;23311;48.776;9.162;2022-10-23T16:26:38;19.50;95.50
292;DHT22;23311;48.776;9.162;2022-10-23T16:29:07;19.50;95.50
292;DHT22;23311;48.776;9.162;2022-10-23T16:31:35;19.50;95.50
292;DHT22;23311;48.776;9.162;2022-10-23T16:34:04;19.50;95.50
292;DHT22;23311;48.776;9.162;2022-10-23T16:36:33;19.50;95.50
292;DHT22;23311;48.776;9.162;2022-10-23T16:39:06;19.70;95.50
292;DHT22;23311;48.776;9.162;2022-10-23T16:41:35;19.80;95.50